createdAt,value
2023-08-17T00:00:32.442Z,97.7
2023-08-17T00:01:34.740Z,97.7
2023-08-17T00:02:36.431Z,97.7
2023-08-17T00:03:38.846Z,97.8
2023-08-17T00:04:40.438Z,97.8
2023-08-17T00:05:42.458Z,97.8
2023-08-17T00:06:44.468Z,97.9
2023-08-17T00:07:46.464Z,98
2023-08-17T00:08:48.433Z,98
2023-08-17T00:09:50.432Z,98
2023-08-17T00:10:52.489Z,98.2
2023-08-17T00:11:54.419Z,98
2023-08-17T00:12:56.427Z,97.8
2023-08-17T00:13:58.418Z,97.8
2023-08-17T00:15:00.450Z,97.8
2023-08-17T00:16:02.992Z,97.8
2023-08-17T00:17:04.404Z,97.7
2023-08-17T00:18:06.583Z,97.7
2023-08-17T00:19:08.817Z,97.8
2023-08-17T00:20:10.458Z,97.8
2023-08-17T00:21:12.419Z,97.9
2023-08-17T00:22:14.411Z,97.9
2023-08-17T00:23:16.827Z,97.9
2023-08-17T00:24:18.446Z,97.9
2023-08-17T00:25:20.440Z,97.9
2023-08-17T00:26:22.618Z,98
2023-08-17T00:27:25.107Z,97.9
2023-08-17T00:28:26.408Z,97.8
2023-08-17T00:29:28.653Z,97.7
2023-08-17T00:30:30.401Z,97.6
2023-08-17T00:31:32.480Z,97.6
2023-08-17T00:32:34.412Z,97.6
2023-08-17T00:33:36.427Z,97.6
2023-08-17T00:34:38.427Z,97.6
2023-08-17T00:35:40.393Z,97.5
2023-08-17T00:36:42.396Z,97.4
2023-08-17T00:37:44.390Z,97.4
2023-08-17T00:38:46.630Z,97.5
2023-08-17T00:39:48.389Z,97.5
2023-08-17T00:40:50.398Z,97.6
2023-08-17T00:41:52.405Z,97.5
2023-08-17T00:42:54.422Z,97.5
2023-08-17T00:43:56.455Z,97.6
2023-08-17T00:44:58.547Z,97.5
2023-08-17T00:46:00.627Z,97.4
2023-08-17T00:47:02.631Z,97.3
2023-08-17T00:48:04.478Z,97.4
2023-08-17T00:49:06.382Z,97.5
2023-08-17T00:50:08.389Z,97.5
2023-08-17T00:51:10.387Z,97.5
2023-08-17T00:52:12.419Z,97.5
2023-08-17T00:53:14.988Z,97.5
2023-08-17T00:54:16.401Z,97.5
2023-08-17T00:55:18.400Z,97.5
2023-08-17T00:56:20.378Z,97.4
2023-08-17T00:57:22.424Z,97.4
2023-08-17T00:58:24.363Z,97.4
2023-08-17T00:59:26.356Z,97.5
2023-08-17T01:00:28.972Z,97.5
2023-08-17T01:01:30.639Z,97.7
2023-08-17T01:02:32.390Z,97.8
2023-08-17T01:03:34.370Z,97.8
2023-08-17T01:04:36.424Z,97.8
2023-08-17T01:05:38.371Z,97.7
2023-08-17T01:06:40.392Z,97.8
2023-08-17T01:07:42.382Z,97.8
2023-08-17T01:08:44.359Z,97.8
2023-08-17T01:09:46.538Z,97.8
2023-08-17T01:10:48.602Z,97.8
2023-08-17T01:11:50.401Z,98
2023-08-17T01:12:52.379Z,97.9
2023-08-17T01:13:54.349Z,97.9
2023-08-17T01:14:56.343Z,97.8
2023-08-17T01:15:58.723Z,98
2023-08-17T01:17:00.371Z,98
2023-08-17T01:18:02.615Z,97.9
2023-08-17T01:19:04.539Z,98
2023-08-17T01:20:06.387Z,98
2023-08-17T01:21:08.372Z,98.1
2023-08-17T01:22:10.337Z,98.2
2023-08-17T01:23:12.349Z,98.2
2023-08-17T01:24:14.336Z,98.2
2023-08-17T01:25:16.441Z,98.2
2023-08-17T01:26:18.360Z,98.2
2023-08-17T01:27:20.357Z,98.2
2023-08-17T01:28:22.376Z,98.2
2023-08-17T01:29:24.335Z,98.2
2023-08-17T01:30:26.370Z,98.1
2023-08-17T01:31:28.578Z,98.1
2023-08-17T01:32:30.555Z,98.2
2023-08-17T01:33:32.334Z,98.2
2023-08-17T01:34:34.336Z,98.3
2023-08-17T01:35:36.590Z,98.3
2023-08-17T01:36:38.331Z,98.3
2023-08-17T01:37:40.334Z,98.3
2023-08-17T01:38:42.340Z,98.4
2023-08-17T01:39:44.360Z,98.5
2023-08-17T01:40:46.371Z,98.5
2023-08-17T01:41:48.321Z,98.5
2023-08-17T01:42:50.578Z,98.4
2023-08-17T01:43:52.335Z,98.5
2023-08-17T01:44:54.358Z,98.5
2023-08-17T01:45:56.523Z,98.5
2023-08-17T01:46:58.494Z,98.6
2023-08-17T01:48:00.557Z,98.6
2023-08-17T01:49:02.346Z,98.7
2023-08-17T01:50:04.360Z,98.7
2023-08-17T01:51:07.104Z,98.7
2023-08-17T01:52:08.310Z,98.8
2023-08-17T01:53:10.302Z,98.8
2023-08-17T01:54:12.336Z,98.9
2023-08-17T01:55:14.309Z,98.9
2023-08-17T01:56:16.332Z,98.9
2023-08-17T01:57:18.318Z,98.9
2023-08-17T01:58:20.570Z,98.9
2023-08-17T01:59:22.370Z,98.9
2023-08-17T02:00:24.319Z,98.9
2023-08-17T02:01:26.295Z,98.9
2023-08-17T02:02:28.330Z,98.9
2023-08-17T02:03:30.332Z,98.9
2023-08-17T02:04:32.291Z,98.9
2023-08-17T02:05:34.288Z,98.9
2023-08-17T02:06:36.506Z,98.9
2023-08-17T02:07:38.289Z,98.8
2023-08-17T02:08:40.309Z,98.8
2023-08-17T02:09:42.428Z,98.8
2023-08-17T02:10:44.285Z,98.7
2023-08-17T02:11:46.310Z,98.7
2023-08-17T02:12:48.315Z,98.7
2023-08-17T02:13:50.278Z,98.7
2023-08-17T02:14:52.320Z,98.7
2023-08-17T02:15:54.273Z,98.7
2023-08-17T02:16:56.472Z,98.7
2023-08-17T02:17:58.521Z,98.6
2023-08-17T02:19:00.280Z,98.6
2023-08-17T02:20:02.292Z,98.6
2023-08-17T02:21:04.309Z,98.5
2023-08-17T02:22:06.323Z,98.5
2023-08-17T02:23:08.298Z,98.4
2023-08-17T02:24:10.265Z,98.4
2023-08-17T02:25:12.258Z,98.3
2023-08-17T02:26:14.264Z,98.3
2023-08-17T02:27:16.681Z,98.5
2023-08-17T02:28:18.273Z,98.5
2023-08-17T02:29:20.277Z,98.6
2023-08-17T02:30:22.314Z,98.6
2023-08-17T02:31:24.286Z,98.6
2023-08-17T02:32:26.767Z,98.7
2023-08-17T02:33:30.446Z,98.7
2023-08-17T02:34:30.793Z,98.7
2023-08-17T02:35:32.791Z,98.7
2023-08-17T02:36:36.640Z,98.7
2023-08-17T02:37:37.184Z,98.7
2023-08-17T02:38:39.206Z,98.6
2023-08-17T02:39:41.186Z,98.6
2023-08-17T02:40:43.202Z,98.6
2023-08-17T02:41:45.213Z,98.6
2023-08-17T02:42:47.213Z,98.6
2023-08-17T02:43:49.185Z,98.5
2023-08-17T02:44:51.170Z,98.5
2023-08-17T02:45:53.446Z,98.5
2023-08-17T02:46:55.171Z,98.6
2023-08-17T02:47:57.388Z,98.6
2023-08-17T02:48:59.164Z,98.7
2023-08-17T02:50:01.220Z,98.6
2023-08-17T02:51:03.214Z,98.6
2023-08-17T02:52:05.172Z,98.6
2023-08-17T02:53:07.181Z,98.6
2023-08-17T02:54:09.171Z,98.7
2023-08-17T02:55:11.186Z,98.8
2023-08-17T02:56:13.306Z,98.8
2023-08-17T02:57:15.155Z,98.8
2023-08-17T02:58:17.316Z,98.8
2023-08-17T02:59:19.194Z,98.8
2023-08-17T03:00:21.182Z,98.8
2023-08-17T03:01:23.339Z,98.9
2023-08-17T03:02:25.959Z,98.9
2023-08-17T03:03:27.431Z,98.9
2023-08-17T03:04:29.186Z,98.9
2023-08-17T03:05:31.157Z,98.9
2023-08-17T03:06:33.144Z,98.9
2023-08-17T03:07:35.167Z,98.8
2023-08-17T03:08:37.172Z,98.8
2023-08-17T03:09:39.211Z,98.8
2023-08-17T03:10:41.153Z,98.8
2023-08-17T03:11:43.153Z,98.8
2023-08-17T03:12:45.138Z,98.9
2023-08-17T03:13:47.270Z,98.9
2023-08-17T03:14:49.147Z,98.9
2023-08-17T03:15:51.133Z,98.9
2023-08-17T03:16:53.160Z,98.9
2023-08-17T03:17:55.364Z,98.9
2023-08-17T03:18:57.599Z,98.8
2023-08-17T03:19:59.140Z,98.8
2023-08-17T03:21:01.133Z,98.8
2023-08-17T03:22:03.117Z,98.7
2023-08-17T03:23:05.163Z,98.8
2023-08-17T03:24:07.128Z,98.8
2023-08-17T03:25:09.142Z,98.8
2023-08-17T03:26:11.119Z,98.8
2023-08-17T03:27:13.117Z,98.8
2023-08-17T03:28:15.148Z,98.8
2023-08-17T03:29:17.327Z,98.8
2023-08-17T03:30:19.129Z,98.8
2023-08-17T03:31:21.123Z,98.8
2023-08-17T03:32:23.183Z,98.8
2023-08-17T03:33:25.340Z,98.8
2023-08-17T03:34:27.141Z,98.8
2023-08-17T03:35:29.133Z,98.8
2023-08-17T03:36:31.158Z,98.8
2023-08-17T03:37:33.589Z,98.8
2023-08-17T03:38:35.113Z,98.7
2023-08-17T03:39:37.135Z,98.8
2023-08-17T03:40:39.327Z,98.8
2023-08-17T03:41:41.148Z,98.8
2023-08-17T03:42:43.119Z,98.8
2023-08-17T03:43:45.115Z,98.8
2023-08-17T03:44:47.331Z,98.8
2023-08-17T03:45:49.322Z,98.8
2023-08-17T03:46:51.143Z,98.8
2023-08-17T03:47:53.335Z,98.8
2023-08-17T03:48:55.116Z,98.8
2023-08-17T03:49:57.101Z,98.8
2023-08-17T03:50:59.130Z,98.9
2023-08-17T03:52:01.130Z,98.9
2023-08-17T03:53:03.109Z,99
2023-08-17T03:54:05.095Z,99
2023-08-17T03:55:07.107Z,99
2023-08-17T03:56:09.144Z,99
2023-08-17T03:57:11.095Z,99
2023-08-17T03:58:13.120Z,99
2023-08-17T03:59:15.088Z,99
2023-08-17T04:00:17.121Z,99.1
2023-08-17T04:01:19.178Z,99.1
2023-08-17T04:02:21.114Z,99.2
2023-08-17T04:03:23.113Z,99.2
2023-08-17T04:04:25.395Z,99.2
2023-08-17T04:05:27.115Z,99.2
2023-08-17T04:06:29.080Z,99.2
2023-08-17T04:07:31.073Z,99.3
2023-08-17T04:08:33.097Z,99.3
2023-08-17T04:09:35.434Z,99.3
2023-08-17T04:10:37.108Z,99.3
2023-08-17T04:11:39.073Z,99.3
2023-08-17T04:12:41.445Z,99.3
2023-08-17T04:13:43.075Z,99.3
2023-08-17T04:14:45.104Z,99.3
2023-08-17T04:15:47.400Z,99.3
2023-08-17T04:16:49.311Z,99.3
2023-08-17T04:17:51.257Z,99.4
2023-08-17T04:18:53.142Z,99.4
2023-08-17T04:19:55.095Z,99.4
2023-08-17T04:20:57.073Z,99.4
2023-08-17T04:21:59.133Z,99.5
2023-08-17T04:23:01.049Z,99.4
2023-08-17T04:24:03.094Z,99.4
2023-08-17T04:25:05.067Z,99.4
2023-08-17T04:26:07.051Z,99.4
2023-08-17T04:27:09.054Z,99.5
2023-08-17T04:28:11.096Z,99.5
2023-08-17T04:29:13.091Z,99.4
2023-08-17T04:30:15.045Z,99.5
2023-08-17T04:31:17.276Z,99.4
2023-08-17T04:32:19.072Z,99.4
2023-08-17T04:33:21.079Z,99.4
2023-08-17T04:34:23.079Z,99.4
2023-08-17T04:35:25.060Z,99.4
2023-08-17T04:36:27.073Z,99.4
2023-08-17T04:37:29.517Z,99.4
2023-08-17T04:38:31.095Z,99.4
2023-08-17T04:39:33.179Z,99.5
2023-08-17T04:40:35.050Z,99.4
2023-08-17T04:41:37.053Z,99.5
2023-08-17T04:42:39.078Z,99.5
2023-08-17T04:43:41.026Z,99.5
2023-08-17T04:44:43.027Z,99.4
2023-08-17T04:45:45.229Z,99.5
2023-08-17T04:46:47.049Z,99.5
2023-08-17T04:47:49.233Z,99.6
2023-08-17T04:48:51.261Z,99.6
2023-08-17T04:49:53.043Z,99.6
2023-08-17T04:50:55.037Z,99.6
2023-08-17T04:51:57.073Z,99.6
2023-08-17T04:52:59.054Z,99.6
2023-08-17T04:54:01.023Z,99.7
2023-08-17T04:55:03.028Z,99.7
2023-08-17T04:56:05.015Z,99.7
2023-08-17T04:57:07.418Z,99.7
2023-08-17T04:58:09.020Z,99.7
2023-08-17T04:59:11.022Z,99.7
2023-08-17T05:00:13.020Z,99.7
2023-08-17T05:01:15.351Z,99.7
2023-08-17T05:02:17.646Z,99.7
2023-08-17T05:03:33.902Z,99.7
2023-08-17T05:04:34.865Z,99.6
2023-08-17T05:05:36.901Z,99.7
2023-08-17T05:06:38.873Z,99.7
2023-08-17T05:07:40.841Z,99.7
2023-08-17T05:08:42.852Z,99.7
2023-08-17T05:09:44.845Z,99.7
2023-08-17T05:10:46.883Z,99.7
2023-08-17T05:11:48.874Z,99.7
2023-08-17T05:12:50.867Z,99.7
2023-08-17T05:13:52.833Z,99.7
2023-08-17T05:14:54.863Z,99.7
2023-08-17T05:15:56.939Z,99.7
2023-08-17T05:16:59.046Z,99.7
2023-08-17T05:18:01.026Z,99.7
2023-08-17T05:19:02.854Z,99.7
2023-08-17T05:20:04.845Z,99.7
2023-08-17T05:21:06.905Z,99.7
2023-08-17T05:22:08.830Z,99.7
2023-08-17T05:23:10.824Z,99.7
2023-08-17T05:24:12.836Z,99.7
2023-08-17T05:25:14.858Z,99.7
2023-08-17T05:26:17.490Z,99.7
2023-08-17T05:27:18.816Z,99.7
2023-08-17T05:28:21.561Z,99.7
2023-08-17T05:29:22.886Z,99.7
2023-08-17T05:30:24.856Z,99.7
2023-08-17T05:31:27.167Z,99.8
2023-08-17T05:32:29.047Z,99.8
2023-08-17T05:33:31.012Z,99.8
2023-08-17T05:34:33.671Z,99.8
2023-08-17T05:35:35.306Z,99.8
2023-08-17T05:36:37.312Z,99.8
2023-08-17T05:37:39.458Z,99.8
2023-08-17T05:38:40.982Z,99.8
2023-08-17T05:39:42.851Z,99.8
2023-08-17T05:40:44.983Z,99.9
2023-08-17T05:41:46.803Z,99.8
2023-08-17T05:42:48.795Z,99.8
2023-08-17T05:43:51.270Z,99.8
2023-08-17T05:44:52.849Z,99.8
2023-08-17T05:45:54.812Z,99.9
2023-08-17T05:46:56.790Z,99.8
2023-08-17T05:47:58.836Z,99.8
2023-08-17T05:49:00.846Z,99.9
2023-08-17T05:50:02.814Z,99.9
2023-08-17T05:51:04.787Z,99.9
2023-08-17T05:52:07.624Z,99.9
2023-08-17T05:53:09.547Z,99.9
2023-08-17T05:54:10.910Z,99.9
2023-08-17T05:55:12.799Z,99.9
2023-08-17T05:56:14.790Z,99.9
2023-08-17T05:57:16.785Z,99.9
2023-08-17T05:58:18.820Z,99.9
2023-08-17T05:59:20.992Z,99.9
2023-08-17T06:00:22.824Z,99.9
2023-08-17T06:01:24.793Z,99.9
2023-08-17T06:02:27.007Z,99.9
2023-08-17T06:03:29.021Z,99.9
2023-08-17T06:04:32.409Z,99.9
2023-08-17T06:05:33.725Z,99.8
2023-08-17T06:06:35.005Z,99.9
2023-08-17T06:07:36.941Z,99.8
2023-08-17T06:08:39.067Z,99.8
2023-08-17T06:09:40.917Z,99.7
2023-08-17T06:10:42.836Z,99.7
2023-08-17T06:11:44.949Z,99.7
2023-08-17T06:12:46.877Z,99.7
2023-08-17T06:13:48.900Z,99.7
2023-08-17T06:14:51.011Z,99.7
2023-08-17T06:15:52.832Z,99.7
2023-08-17T06:16:55.048Z,99.6
2023-08-17T06:17:57.082Z,99.6
2023-08-17T06:18:59.022Z,99.6
2023-08-17T06:20:00.963Z,99.5
2023-08-17T06:21:02.857Z,99.4
2023-08-17T06:22:04.863Z,99.3
2023-08-17T06:23:07.037Z,99.4
2023-08-17T06:24:08.820Z,99.4
2023-08-17T06:25:10.936Z,99.5
2023-08-17T06:26:12.853Z,99.5
2023-08-17T06:27:14.849Z,99.3
2023-08-17T06:28:16.818Z,99.3
2023-08-17T06:29:18.827Z,99.3
2023-08-17T06:30:20.815Z,99.4
2023-08-17T06:31:22.955Z,99.4
2023-08-17T06:32:25.114Z,99.4
2023-08-17T06:33:26.842Z,99.4
2023-08-17T06:34:28.809Z,99.5
2023-08-17T06:35:30.868Z,99.5
2023-08-17T06:36:32.836Z,99.5
2023-08-17T06:37:35.290Z,99.6
2023-08-17T06:38:37.171Z,99.4
2023-08-17T06:39:38.807Z,99.4
2023-08-17T06:40:40.848Z,99.4
2023-08-17T06:41:42.825Z,99.5
2023-08-17T06:42:44.804Z,99.5
2023-08-17T06:43:49.707Z,99.5
2023-08-17T06:44:50.499Z,99.5
2023-08-17T06:45:52.444Z,99.5
2023-08-17T06:46:55.004Z,99.5
2023-08-17T06:47:56.788Z,98.9
2023-08-17T06:48:58.963Z,98.4
2023-08-17T06:50:00.662Z,98.2
2023-08-17T06:51:02.853Z,98.4
2023-08-17T06:52:04.501Z,98.5
2023-08-17T06:53:06.426Z,98.6
2023-08-17T06:54:08.292Z,98.4
2023-08-17T06:55:10.551Z,98.3
2023-08-17T06:56:12.681Z,98.5
2023-08-17T06:57:14.343Z,98.6
2023-08-17T06:58:16.697Z,98.7
2023-08-17T06:59:19.467Z,98.8
2023-08-17T07:00:20.804Z,98.9
2023-08-17T07:01:22.776Z,99
2023-08-17T07:02:24.995Z,99
2023-08-17T07:03:26.746Z,99
2023-08-17T07:04:28.926Z,99.1
2023-08-17T07:05:31.300Z,99.1
2023-08-17T07:06:32.532Z,99.1
2023-08-17T07:07:34.945Z,99.1
2023-08-17T07:08:36.521Z,99.1
2023-08-17T07:09:39.324Z,99.1
2023-08-17T07:10:40.840Z,99
2023-08-17T07:11:44.461Z,99.1
2023-08-17T07:12:46.819Z,99
2023-08-17T07:13:47.738Z,99
2023-08-17T07:14:49.824Z,99
2023-08-17T07:15:51.552Z,99
2023-08-17T07:16:53.685Z,99
2023-08-17T07:17:55.659Z,99
2023-08-17T07:18:57.843Z,98.9
2023-08-17T07:20:16.139Z,98.9
2023-08-17T07:21:17.879Z,98.8
2023-08-17T07:22:19.974Z,98.7
2023-08-17T07:23:21.921Z,98.7
2023-08-17T07:24:23.446Z,98.6
2023-08-17T07:25:25.665Z,98.6
2023-08-17T07:26:27.609Z,98.5
2023-08-17T07:27:30.630Z,98.2
2023-08-17T07:28:32.520Z,98
2023-08-17T07:29:33.395Z,98
2023-08-17T07:30:35.764Z,98.1
2023-08-17T07:31:37.635Z,98.1
2023-08-17T07:32:39.909Z,98.2
2023-08-17T07:33:41.729Z,98.2
2023-08-17T07:34:43.726Z,98.3
2023-08-17T07:35:45.785Z,98.2
2023-08-17T07:36:47.826Z,98.2
2023-08-17T07:38:09.162Z,98.2
2023-08-17T07:39:10.380Z,97.8
2023-08-17T07:40:12.639Z,97.5
2023-08-17T07:41:14.378Z,97.5
2023-08-17T07:42:16.603Z,97.5
2023-08-17T07:43:18.595Z,97.5
2023-08-17T07:44:20.510Z,97.6
2023-08-17T07:45:22.492Z,97.6
2023-08-17T07:46:24.002Z,97.8
2023-08-17T07:47:27.606Z,97.9
2023-08-17T07:48:28.732Z,97.9
2023-08-17T07:49:33.445Z,97.9
2023-08-17T07:50:34.021Z,98
2023-08-17T07:51:36.324Z,97.9
2023-08-17T07:52:38.034Z,98
2023-08-17T07:53:40.034Z,97.8
2023-08-17T07:54:42.183Z,97.8
2023-08-17T07:55:44.052Z,97.6
2023-08-17T07:56:46.098Z,97.3
2023-08-17T07:57:48.052Z,97.2
2023-08-17T07:58:50.005Z,97.3
2023-08-17T07:59:51.997Z,97.6
2023-08-17T08:00:54.077Z,97.6
2023-08-17T08:01:56.232Z,97.6
2023-08-17T08:02:58.118Z,97.6
2023-08-17T08:04:00.008Z,97.6
2023-08-17T08:05:02.186Z,97.2
2023-08-17T08:06:04.020Z,97.2
2023-08-17T08:07:06.192Z,97.1
2023-08-17T08:08:08.002Z,97.2
2023-08-17T08:09:10.013Z,97.2
2023-08-17T08:10:12.023Z,97.3
2023-08-17T08:11:14.135Z,97.3
2023-08-17T08:12:16.009Z,97.2
2023-08-17T08:13:18.558Z,97.1
2023-08-17T08:14:19.978Z,97.2
2023-08-17T08:15:22.023Z,97.3
2023-08-17T08:16:24.042Z,97.3
2023-08-17T08:17:26.876Z,97.3
2023-08-17T08:18:27.980Z,97.3
2023-08-17T08:19:30.013Z,97.3
2023-08-17T08:20:32.010Z,97.3
2023-08-17T08:21:33.971Z,97.3
2023-08-17T08:22:35.978Z,97.1
2023-08-17T08:23:38.010Z,97
2023-08-17T08:24:42.594Z,97
2023-08-17T08:25:43.690Z,97.2
2023-08-17T08:26:45.810Z,97.2
2023-08-17T08:27:47.719Z,97.1
2023-08-17T08:28:49.999Z,97.2
2023-08-17T08:29:51.717Z,97.1
2023-08-17T08:30:53.669Z,97.1
2023-08-17T08:31:55.662Z,97.1
2023-08-17T08:32:57.812Z,97
2023-08-17T08:33:59.724Z,96.9
2023-08-17T08:35:01.723Z,96.7
2023-08-17T08:36:03.683Z,96.6
2023-08-17T08:37:05.723Z,96.6
2023-08-17T08:38:07.835Z,96.6
2023-08-17T08:39:09.980Z,96.5
2023-08-17T08:40:11.796Z,96.5
2023-08-17T08:41:13.793Z,96.4
2023-08-17T08:42:15.663Z,96.4
2023-08-17T08:43:17.745Z,96.4
2023-08-17T08:44:19.822Z,96.3
2023-08-17T08:45:21.683Z,96.1
2023-08-17T08:46:23.736Z,96
2023-08-17T08:47:26.468Z,96
2023-08-17T08:48:27.794Z,95.9
2023-08-17T08:49:29.679Z,95.9
2023-08-17T08:50:31.707Z,95.9
2023-08-17T08:51:33.849Z,95.9
2023-08-17T08:52:35.738Z,95.8
2023-08-17T08:53:37.698Z,95.8
2023-08-17T08:54:39.679Z,95.8
2023-08-17T08:55:46.299Z,95.9
2023-08-17T08:56:48.617Z,95.9
2023-08-17T08:57:52.559Z,96
2023-08-17T08:58:55.004Z,95.7
2023-08-17T08:59:58.721Z,95.7
2023-08-17T09:00:59.279Z,95.6
2023-08-17T09:02:01.086Z,95.6
2023-08-17T09:03:03.179Z,95.7
2023-08-17T09:04:05.038Z,95.5
2023-08-17T09:05:07.289Z,95.1
2023-08-17T09:06:10.251Z,94.2
2023-08-17T09:07:11.092Z,94.5
2023-08-17T09:08:18.010Z,94.6
2023-08-17T09:09:18.525Z,94.8
2023-08-17T09:10:20.506Z,95
2023-08-17T09:11:22.551Z,95
2023-08-17T09:12:41.213Z,94.8
2023-08-17T09:13:42.092Z,94.7
2023-08-17T09:14:44.142Z,94.7
2023-08-17T09:15:46.116Z,94.5
2023-08-17T09:16:48.454Z,94.3
2023-08-17T09:17:50.793Z,94.5
2023-08-17T09:18:52.442Z,94.5
2023-08-17T09:19:54.614Z,94.6
2023-08-17T09:20:56.756Z,94.5
2023-08-17T09:21:58.481Z,94.5
2023-08-17T09:23:00.078Z,94.5
2023-08-17T09:24:02.208Z,94.3
2023-08-17T09:25:04.081Z,93.5
2023-08-17T09:26:06.509Z,93.1
2023-08-17T09:27:11.152Z,93
2023-08-17T09:28:13.801Z,92.8
2023-08-17T09:29:16.983Z,91.2
2023-08-17T09:30:19.973Z,90.7
2023-08-17T09:31:20.649Z,90.8
2023-08-17T09:32:22.397Z,91.9
2023-08-17T09:33:24.407Z,92
2023-08-17T09:34:26.436Z,92.2
2023-08-17T09:35:28.660Z,92.4
2023-08-17T09:36:30.407Z,92.6
2023-08-17T09:37:32.406Z,92.9
2023-08-17T09:38:34.406Z,93.1
2023-08-17T09:39:36.429Z,93.2
2023-08-17T09:40:38.404Z,93.1
2023-08-17T09:41:43.879Z,93
2023-08-17T09:42:44.427Z,92.7
2023-08-17T09:43:46.709Z,92.1
2023-08-17T09:44:48.828Z,92.3
2023-08-17T09:45:50.927Z,92.2
2023-08-17T09:46:53.293Z,91.9
2023-08-17T09:47:55.021Z,91.9
2023-08-17T09:48:56.750Z,91.9
2023-08-17T09:49:59.694Z,92.3
2023-08-17T09:51:01.179Z,92.5
2023-08-17T09:52:05.873Z,92.3
2023-08-17T09:53:06.645Z,92
2023-08-17T09:54:08.859Z,91.5
2023-08-17T09:55:10.703Z,91.6
2023-08-17T09:56:18.252Z,91.8
2023-08-17T09:57:23.423Z,91.9
2023-08-17T09:58:24.178Z,92.2
2023-08-17T09:59:26.314Z,90.6
2023-08-17T10:00:28.290Z,90.9
2023-08-17T10:01:30.217Z,90.8
2023-08-17T10:02:32.246Z,90.8
2023-08-17T10:03:34.155Z,91.5
2023-08-17T10:04:36.266Z,92
2023-08-17T10:05:37.932Z,92.1
2023-08-17T10:06:40.313Z,92.2
2023-08-17T10:07:42.319Z,92.5
2023-08-17T10:08:44.101Z,92.5
2023-08-17T10:09:50.598Z,92.5
2023-08-17T10:10:57.142Z,92.5
2023-08-17T10:12:02.685Z,92.5
2023-08-17T10:13:06.541Z,92.3
2023-08-17T10:14:12.589Z,92.8
2023-08-17T10:15:19.810Z,92.9
2023-08-17T10:16:20.730Z,93.1
2023-08-17T10:17:22.769Z,93.2
2023-08-17T10:18:24.903Z,92.8
2023-08-17T10:19:27.049Z,92.7
2023-08-17T10:20:28.794Z,93
2023-08-17T10:21:31.065Z,93.2
2023-08-17T10:22:32.927Z,92.9
2023-08-17T10:23:34.666Z,92.9
2023-08-17T10:24:37.028Z,92.6
2023-08-17T10:25:38.758Z,92.5
2023-08-17T10:26:41.455Z,92.4
2023-08-17T10:27:42.400Z,92.5
2023-08-17T10:28:44.402Z,92.6
2023-08-17T10:29:46.440Z,92.4
2023-08-17T10:30:48.430Z,92.3
2023-08-17T10:31:50.583Z,92.3
2023-08-17T10:32:52.710Z,92.6
2023-08-17T10:33:54.497Z,92.5
2023-08-17T10:34:56.659Z,92.2
2023-08-17T10:35:58.416Z,92.5
2023-08-17T10:37:00.666Z,92.5
2023-08-17T10:38:02.397Z,92.3
2023-08-17T10:39:04.409Z,92.4
2023-08-17T10:40:06.449Z,92.8
2023-08-17T10:41:08.436Z,93.1
2023-08-17T10:42:10.535Z,93.2
2023-08-17T10:43:12.391Z,93.3
2023-08-17T10:44:14.382Z,93.2
2023-08-17T10:45:16.694Z,93
2023-08-17T10:46:19.503Z,93
2023-08-17T10:47:20.379Z,92.9
2023-08-17T10:48:22.594Z,92.9
2023-08-17T10:49:24.419Z,92.9
2023-08-17T10:50:26.401Z,92.7
2023-08-17T10:51:28.386Z,92.4
2023-08-17T10:52:30.383Z,92.5
2023-08-17T10:53:32.380Z,92.6
2023-08-17T10:54:34.572Z,92.7
2023-08-17T10:55:36.365Z,92.7
2023-08-17T10:56:38.774Z,93
2023-08-17T10:57:40.422Z,92.9
2023-08-17T10:58:42.478Z,92.9
2023-08-17T10:59:44.429Z,92.9
2023-08-17T11:00:46.856Z,92.6
2023-08-17T11:01:48.863Z,92.3
2023-08-17T11:02:50.488Z,92.5
2023-08-17T11:03:53.573Z,92.3
2023-08-17T11:04:54.743Z,92.1
2023-08-17T11:05:56.359Z,92.1
2023-08-17T11:06:58.523Z,92.3
2023-08-17T11:08:00.383Z,92.4
2023-08-17T11:09:02.528Z,92
2023-08-17T11:10:04.419Z,91.7
2023-08-17T11:11:06.359Z,91.7
2023-08-17T11:12:09.393Z,91.7
2023-08-17T11:13:10.949Z,91.6
2023-08-17T11:14:12.357Z,91.6
2023-08-17T11:15:14.341Z,91.8
2023-08-17T11:16:19.363Z,91.9
2023-08-17T11:17:19.942Z,91.3
2023-08-17T11:18:21.864Z,91.4
2023-08-17T11:19:23.891Z,91.6
2023-08-17T11:20:25.822Z,91.9
2023-08-17T11:21:27.913Z,92.2
2023-08-17T11:22:30.575Z,92.2
2023-08-17T11:23:32.022Z,92.2
2023-08-17T11:24:33.809Z,90.6
2023-08-17T11:25:35.818Z,91.2
2023-08-17T11:26:37.812Z,91.4
2023-08-17T11:27:39.854Z,91.5
2023-08-17T11:28:43.950Z,91.4
2023-08-17T11:29:45.161Z,91.4
2023-08-17T11:30:48.120Z,91.5
2023-08-17T11:31:51.480Z,92
2023-08-17T11:32:54.720Z,91.9
2023-08-17T11:33:56.642Z,91.7
2023-08-17T11:35:00.407Z,91.9
2023-08-17T11:36:04.554Z,92.1
2023-08-17T11:37:05.924Z,92.3
2023-08-17T11:38:09.490Z,92.4
2023-08-17T11:39:11.483Z,92.5
2023-08-17T11:40:14.157Z,92.6
2023-08-17T11:41:19.391Z,92.3
2023-08-17T11:42:23.021Z,91.9
2023-08-17T11:43:23.368Z,92.2
2023-08-17T11:44:25.587Z,92.3
2023-08-17T11:45:28.647Z,92.6
2023-08-17T11:46:30.407Z,92.6
2023-08-17T11:47:33.325Z,92.5
2023-08-17T11:48:37.855Z,92.5
2023-08-17T11:49:40.126Z,92.3
2023-08-17T11:50:41.105Z,92.2
2023-08-17T11:51:43.928Z,92.2
2023-08-17T11:52:47.128Z,92.2
2023-08-17T11:53:50.617Z,92.1
2023-08-17T11:54:52.902Z,91.9
2023-08-17T11:55:58.410Z,91.8
2023-08-17T11:57:06.965Z,91.2
2023-08-17T11:58:11.089Z,91.4
2023-08-17T11:59:11.511Z,91.5
2023-08-17T12:00:14.288Z,91.7
2023-08-17T12:01:15.698Z,91.6
2023-08-17T12:02:18.253Z,91.4
2023-08-17T12:03:21.052Z,90.8
2023-08-17T12:04:21.762Z,90.7
2023-08-17T12:05:23.613Z,91
2023-08-17T12:06:25.953Z,91.3
2023-08-17T12:07:27.837Z,91.5
2023-08-17T12:08:32.287Z,91.2
2023-08-17T12:09:32.662Z,91.2
2023-08-17T12:10:34.657Z,91.1
2023-08-17T12:11:36.636Z,90.7
2023-08-17T12:12:38.717Z,90.4
2023-08-17T12:13:41.163Z,89.8
2023-08-17T12:14:45.323Z,89.9
2023-08-17T12:15:46.097Z,89.9
2023-08-17T12:16:47.873Z,89.6
2023-08-17T12:17:50.358Z,88.9
2023-08-17T12:18:52.070Z,89.2
2023-08-17T12:19:54.936Z,89.6
2023-08-17T12:20:56.889Z,90.4
2023-08-17T12:21:58.048Z,90.7
2023-08-17T12:22:59.823Z,90.9
2023-08-17T12:24:02.070Z,90.7
2023-08-17T12:25:03.877Z,90
2023-08-17T12:26:05.969Z,89.9
2023-08-17T12:27:07.848Z,89.4
2023-08-17T12:28:09.863Z,90.3
2023-08-17T12:29:11.889Z,89.7
2023-08-17T12:30:13.990Z,89.3
2023-08-17T12:31:16.124Z,89
2023-08-17T12:32:17.921Z,88.7
2023-08-17T12:33:20.002Z,89.4
2023-08-17T12:34:22.592Z,89.6
2023-08-17T12:35:23.936Z,89.4
2023-08-17T12:36:25.950Z,89
2023-08-17T12:37:30.800Z,88.1
2023-08-17T12:38:31.186Z,88.9
2023-08-17T12:39:33.370Z,88.2
2023-08-17T12:40:35.215Z,88.4
2023-08-17T12:41:37.138Z,88.2
2023-08-17T12:42:39.199Z,87.8
2023-08-17T12:43:41.140Z,87.8
2023-08-17T12:44:43.121Z,88.6
2023-08-17T12:45:45.259Z,88.7
2023-08-17T12:46:47.167Z,88.7
2023-08-17T12:47:49.456Z,88.6
2023-08-17T12:48:51.127Z,88.5
2023-08-17T12:49:53.709Z,88.1
2023-08-17T12:50:55.327Z,88.1
2023-08-17T12:51:57.324Z,88.6
2023-08-17T12:52:59.381Z,88.5
2023-08-17T12:54:01.268Z,88.2
2023-08-17T12:55:03.273Z,86.2
2023-08-17T12:56:05.244Z,86.8
2023-08-17T12:57:13.333Z,86.6
2023-08-17T12:58:14.810Z,86.4
2023-08-17T12:59:16.207Z,85.3
2023-08-17T13:00:18.277Z,85.1
2023-08-17T13:01:20.469Z,84.6
2023-08-17T13:02:22.301Z,84.3
2023-08-17T13:03:24.746Z,82.3
2023-08-17T13:04:26.296Z,83.2
2023-08-17T13:05:29.407Z,82.6
2023-08-17T13:06:49.604Z,82.8
2023-08-17T13:07:50.998Z,83.1
2023-08-17T13:08:52.772Z,83.7
2023-08-17T13:09:54.556Z,83.2
2023-08-17T13:10:57.045Z,84.1
2023-08-17T13:11:58.658Z,81.4
2023-08-17T13:13:00.905Z,83.1
2023-08-17T13:14:02.596Z,83.4
2023-08-17T13:15:04.441Z,83.4
2023-08-17T13:16:07.022Z,83.3
2023-08-17T13:17:08.434Z,82.3
2023-08-17T13:18:11.014Z,82.6
2023-08-17T13:19:12.558Z,82.4
2023-08-17T13:20:14.528Z,83.8
2023-08-17T13:21:16.560Z,83.8
2023-08-17T13:22:18.427Z,84.1
2023-08-17T13:23:20.392Z,84.4
2023-08-17T13:24:22.591Z,84.4
2023-08-17T13:25:25.017Z,82.9
2023-08-17T13:26:26.391Z,83.3
2023-08-17T13:27:28.409Z,84.4
2023-08-17T13:28:30.441Z,82.9
2023-08-17T13:29:32.417Z,83.3
2023-08-17T13:30:34.396Z,83.7
2023-08-17T13:31:36.399Z,83.7
2023-08-17T13:32:38.426Z,83.4
2023-08-17T13:33:40.564Z,82.7
2023-08-17T13:34:42.780Z,82.6
2023-08-17T13:35:44.413Z,83
2023-08-17T13:36:46.627Z,83.6
2023-08-17T13:37:48.374Z,83.2
2023-08-17T13:38:50.553Z,83
2023-08-17T13:39:53.111Z,83.5
2023-08-17T13:40:54.375Z,83.9
2023-08-17T13:41:56.367Z,82.9
2023-08-17T13:42:58.806Z,83.3
2023-08-17T13:44:01.367Z,84.4
2023-08-17T13:45:02.398Z,84.5
2023-08-17T13:46:04.674Z,84
2023-08-17T13:47:06.832Z,85.1
2023-08-17T13:48:08.885Z,85.6
2023-08-17T13:49:10.421Z,85.4
2023-08-17T13:50:12.525Z,84.5
2023-08-17T13:51:14.365Z,84.1
2023-08-17T13:52:16.699Z,84.6